Celebrity Equinox — 9HXD9 — position and weather

sailwx.info

Track history (hours):
 
Tides and Currents Weather Stations Pressure Air Temp Water Temp Dewpoint Dewpoint Depression Visibility Wind Speed Wind Dir Waves Ship Positions

Celebrity Equinox

Last reported at 2015-Jan-31 00:33 UTC. Time now 2015-Feb-01 04:08 UTC.
Position N 18°09' W 063°21'.

Length 317 m; draft 9 m.

Type: Ship. MMSI: 249667000.

Date/timePositionNaut miles runAvg speedWind from/ knotsBaromVisibWave heightAir tempDewpointWater temp
2015-Jan-31 00:33N 18°09' W 063°21'1716.9
2015-Jan-30 23:33N 18°01' W 063°05'2 2.3
2015-Jan-30 22:33N 18°00' W 063°03'2 1.5
2015-Jan-30 21:33N 18°00' W 063°05'2 1.5
2015-Jan-30 20:20N 18°01' W 063°03'0 0.0
2015-Jan-30 11:13N 18°01' W 063°03'5 7.8
2015-Jan-30 10:33N 17°56' W 063°05'1614.2
2015-Jan-30 09:27N 17°40' W 063°05'  
2015-Jan-27 07:23N 17°29' W 063°04'1011.8
2015-Jan-27 06:33N 17°39' W 063°08'1211.6
2015-Jan-27 05:33N 17°44' W 063°18'1211.7
2015-Jan-27 04:32N 17°49' W 063°30'1212.4
2015-Jan-27 03:33N 17°54' W 063°41'6412.3
2015-Jan-26 22:19N 18°12' W 064°46'1012.0
2015-Jan-26 21:32N 18°16' W 064°55'  
2015-Jan-24 00:05N 26°13' W 079°24'917.1
2015-Jan-23 23:33N 26°11' W 079°34'1717.3
2015-Jan-23 22:33N 26°08' W 079°53'1312.8
2015-Jan-23 21:33N 26°05' W 080°07'0 0.2
2015-Jan-23 20:27N 26°05' W 080°07'0 0.0
2015-Jan-23 19:32N 26°05' W 080°07'0 0.0
2015-Jan-23 18:29N 26°05' W 080°07'0 0.0
2015-Jan-23 17:31N 26°05' W 080°07'0 0.0
2015-Jan-23 16:31N 26°05' W 080°07'0 0.0
2015-Jan-23 15:33N 26°05' W 080°07'0 0.0
2015-Jan-23 14:33N 26°05' W 080°07'0 0.0
2015-Jan-23 13:24N 26°05' W 080°07'0 0.0
2015-Jan-23 12:32N 26°05' W 080°07'0 0.0
2015-Jan-23 11:29N 26°05' W 080°07'0 0.1
2015-Jan-23 10:33N 26°05' W 080°07'9 9.0
2015-Jan-23 09:33N 26°01' W 079°58'1515.1
2015-Jan-23 08:33N 25°50' W 079°47'  
Track history (hours):
 
Tides and Currents Weather Stations Pressure Air Temp Water Temp Dewpoint Dewpoint Depression Visibility Wind Speed Wind Dir Waves Ship Positions

Celebrity Equinox

Last reported at 2015-Jan-31 00:33 UTC. Time now 2015-Feb-01 04:08 UTC.
Position N 18°09' W 063°21'.

Length 317 m; draft 9 m.

Type: Ship. MMSI: 249667000.

Date/timePositionNaut miles runAvg speedWind from/ knotsBaromVisibWave heightAir tempDewpointWater temp
2015-Jan-31 00:33N 18°09' W 063°21'1716.9
2015-Jan-30 23:33N 18°01' W 063°05'2 2.3
2015-Jan-30 22:33N 18°00' W 063°03'2 1.5
2015-Jan-30 21:33N 18°00' W 063°05'2 1.5
2015-Jan-30 20:20N 18°01' W 063°03'0 0.0
2015-Jan-30 11:13N 18°01' W 063°03'5 7.8
2015-Jan-30 10:33N 17°56' W 063°05'1614.2
2015-Jan-30 09:27N 17°40' W 063°05'  
2015-Jan-27 07:23N 17°29' W 063°04'1011.8
2015-Jan-27 06:33N 17°39' W 063°08'1211.6
2015-Jan-27 05:33N 17°44' W 063°18'1211.7
2015-Jan-27 04:32N 17°49' W 063°30'1212.4
2015-Jan-27 03:33N 17°54' W 063°41'6412.3
2015-Jan-26 22:19N 18°12' W 064°46'1012.0
2015-Jan-26 21:32N 18°16' W 064°55'  
2015-Jan-24 00:05N 26°13' W 079°24'917.1
2015-Jan-23 23:33N 26°11' W 079°34'1717.3
2015-Jan-23 22:33N 26°08' W 079°53'1312.8
2015-Jan-23 21:33N 26°05' W 080°07'0 0.2
2015-Jan-23 20:27N 26°05' W 080°07'0 0.0
2015-Jan-23 19:32N 26°05' W 080°07'0 0.0
2015-Jan-23 18:29N 26°05' W 080°07'0 0.0
2015-Jan-23 17:31N 26°05' W 080°07'0 0.0
2015-Jan-23 16:31N 26°05' W 080°07'0 0.0
2015-Jan-23 15:33N 26°05' W 080°07'0 0.0
2015-Jan-23 14:33N 26°05' W 080°07'0 0.0
2015-Jan-23 13:24N 26°05' W 080°07'0 0.0
2015-Jan-23 12:32N 26°05' W 080°07'0 0.0
2015-Jan-23 11:29N 26°05' W 080°07'0 0.1
2015-Jan-23 10:33N 26°05' W 080°07'9 9.0
2015-Jan-23 09:33N 26°01' W 079°58'1515.1
2015-Jan-23 08:33N 25°50' W 079°47'  

Dump ship's entire track history